Main page
METAR-TAF:

METAR-TAF

Airports :

Sukhothai Airport

Sukhothai, Thailand

latitude: 17-14-16N, longitude: 099-49-05E, elevation: 55 m

Current weather observation

The report was made 1 hour and 3 minutes ago, at 09:00 UTC
Wind 3 kt from the East/Southeast
Temperature 34°C
Humidity 32%
Pressure 1009 hPa
Visibility: 6000 m

METAR: VTPO 240900Z 12003KT 6000 NSC 34/15 Q1009 NOSIG

Time: 17:03 (10:03 UTC)

Forecast

The report was made 5 hours and 3 minutes ago, at 05:00 UTC
Forecast valid from 24 at 06 UTC to 25 at 06 UTC
Wind 5 kt from the South
Visibility: 7000 m
Becoming
from 25 at 00 UTC to 25 at 02 UTC
Visibility: 2500 m
mist
Becoming
from 25 at 04 UTC to 25 at 06 UTC
Visibility: 6000 m

TAF: VTPO 240500Z 2406/2506 18005KT 7000 NSC BECMG 2500/2502 2500 BR BECMG 2504/2506 6000 NSW

Weather observations and forecasts of more than 4000 airports (METAR and TAF reports).

The available stations are represented by yellow and red dots on the map.

Hover mouse over dot to see the name of the station.

Then click to see weather observations and forecasts.

To change the map : click on the green buttons with a black cross to zoom in, on the green button with a dash to zoom out, or on the green arrows for adjacent maps.


METAR-TAF: